Greenway, AR (72430)

3:50 PM CDT on August 30, 2016 (GMT -0500)
Kennett E911 | | Change Station

Elev 262 ft 36.24 °N, 90.06 °W | Updated 6 seconds ago

Partly Cloudy
Partly Cloudy
92.7 °F
Feels Like 105 °F
N
5.0
Wind Variable Wind from East
Gusts 9.0 mph

Today
High -- | Low -- °F
--% Chance of Precip.
Yesterday
High -- | Low -- °F
Precip. -- in
Pressure 30.02 in
Visibility 10.0 miles
Clouds Few 4200 ft
Heat Index 105 °F
Dew Point 76 °F
Humidity 58%
Rainfall 0.00 in
Snow Depth Not available.
6:31 AM 7:30 PM
Waning Crescent, 2% visible
METAR KPOF 301953Z AUTO 01006KT 10SM FEW042 33/23 A3004 RMK AO2 SLP165 T03330233 TSNO
Pressure 30.02 in
Visibility 10.0 miles
Clouds Few 4200 ft
Heat Index 105 °F
Dew Point 76 °F
Humidity 58%
Rainfall 0.00 in
Snow Depth Not available.
6:31 AM 7:30 PM
Waning Crescent, 2% visible
METAR KPOF 301953Z AUTO 01006KT 10SM FEW042 33/23 A3004 RMK AO2 SLP165 T03330233 TSNO

10-Day Weather Forecast

Almanac

Astronomy

Aug. 30, 2016 Rise Set
Actual Time
Civil Twilight
Nautical Twilight
Astronomical Twilight
Moon
Length of Visible Light
Length of Day
Tomorrow will be .
, % of the Moon is Illuminated

Today's Extremes

State Highs State Lows

Community

WunderPhotos

Upload Photos

1,935,889 photos uploaded!

WunderBlog® & News

Nearby

Air Quality

  Air Quality AQ Index Pollutant
Not available.

Snow Depth

Station Depth Elevation

Earthquake Activity

City Distance Mag. Time & Date
Minimum magnitude displayed is 2.5.

Coastal Water Temperatures

Place Temperature

Stations

Nearby Weather Stations

Station Location Temp. Windchill Dew Point Humidity Wind Precip. Elev Updated Type
                   

Watches & Warnings

There are currently no watches in effect.